Terminal Aerodrome Forecast
Issued by NWS

Home | Current Version | Previous Version | Text Only | Print | Product List | Glossary On
Versions: 1 2 3 4 5 6 7 8 9 10 11 12 13 14 15 16 17
000
FTUS41 KBTV 241727
TAFSLK
TAF
KSLK 241727Z 2418/2518 VRB04KT P6SM SKC
     FM242100 24006KT P6SM SKC
     FM250300 23005KT P6SM SKC WS020/27040KT
     FM251300 25012KT P6SM SKC=

USA.gov is the U.S. government's official web portal to all federal, state and local government web resources and services.